Página principal
METAR-TAF:

METAR-TAF

Aeroportos :

Loei, Tailândia

latitude: 17-27N, longitude: 101-44E, altura: 253 m

Observação actual do tempo

O boletim foi feito há 1 hora e 4 minutos, às 05:00 UTC
Vento 4 kt com direcção variável
Temperatura 32°C
Humidade 46%
Pressão 1014 hPa
Visibilidade: 5000 m
bruma

METAR: VTUL 230500Z VRB04KT 5000 HZ NSC 32/19 Q1014 NOSIG

Hora: 13:04 (06:04 UTC)

Previsão

O boletim foi feito há 1 hora e 4 minutos, às 05:00 UTC
Previsão válida de 23 às 06 UTC a 24 às 06 UTC
Vento 3 kt de es-sudeste
Visibilidade: 7000 m
Tornando-se
de 23 às 21 UTC a 23 às 23 UTC
Visibilidade: 3000 m
neblina
Tornando-se
de 24 às 02 UTC a 24 às 04 UTC
Visibilidade: 5000 m
bruma

TAF: VTUL 230500Z 2306/2406 12003KT 7000 NSC BECMG 2321/2323 3000 BR BECMG 2402/2404 5000 HZ

Observações e previsões do tempo de mais de 4000 aeroportos (mensagens METAR e TAF).

As estações disponíveis são os pontos amarelos e vermelhos sobre o mapa.

Mova o rato sobre o mapa para ver o nome da estação.

Depois clique no ponto para visualizar as observações e previsões meteorológicas.

Para alterar o mapa : clique nos botões verdes com uma cruz preta para aumentar o zoom; no botão verde com uma pitada de zoom; ou nas setas verdes para mapas adjacentes.


METAR-TAF: